Time;durP1;ratioP1;P1;durP2;ratioP2;P2;SDS_P1;SDS_P2;PMS_P1;PMS_P2;Temp;Humidity;BMP_temperature;BMP_pressure;BME280_temperature;BME280_humidity;BME280_pressure;Samples;Min_cycle;Max_cycle;Signal;HPM_P1;HPM_P2
2022/03/11 00:00:30;;;;;;;16.23;7.95;;;;;;;-8.25;70.00;94026.13;5114399;28;20031;-42
2022/03/11 00:02:55;;;;;;;13.52;6.45;;;;;;;-8.31;69.38;94019.03;5105904;28;20504;-42
2022/03/11 00:05:21;;;;;;;11.45;5.43;;;;;;;-8.55;69.58;94019.13;5093571;28;20436;-42
2022/03/11 00:07:46;;;;;;;11.15;6.55;;;;;;;-8.48;69.99;94028.19;5093914;28;20107;-41
2022/03/11 00:10:12;;;;;;;8.95;5.85;;;;;;;-8.43;70.22;94025.78;5089521;28;20410;-43
2022/03/11 00:12:37;;;;;;;7.75;4.88;;;;;;;-8.30;69.28;94029.34;5073568;28;20028;-42
2022/03/11 00:15:05;;;;;;;10.50;5.95;;;;;;;-8.29;69.12;94008.69;5073183;28;20030;-42
2022/03/11 00:17:30;;;;;;;9.82;5.47;;;;;;;-8.12;69.22;94026.25;5073456;28;20022;-42
2022/03/11 00:19:56;;;;;;;7.40;5.28;;;;;;;-8.22;70.19;94027.22;5073229;28;20414;-42
2022/03/11 00:22:21;;;;;;;5.97;3.45;;;;;;;-8.50;69.77;94015.22;5080119;28;20513;-42
2022/03/11 00:24:47;;;;;;;4.57;2.90;;;;;;;-8.45;68.38;94028.13;5093555;28;20024;-42
2022/03/11 00:27:12;;;;;;;4.32;3.25;;;;;;;-8.33;67.47;94027.50;5093467;28;20391;-42
2022/03/11 00:29:38;;;;;;;8.75;3.10;;;;;;;-8.34;67.26;94025.22;5093477;28;20024;-42
2022/03/11 00:32:03;;;;;;;7.95;4.65;;;;;;;-8.54;68.52;94009.19;5093380;28;20463;-41
2022/03/11 00:34:29;;;;;;;8.10;5.20;;;;;;;-8.74;70.25;94000.41;5093305;28;20459;-42
2022/03/11 00:36:54;;;;;;;4.05;2.75;;;;;;;-8.61;71.14;94028.06;5093033;28;20489;-42
2022/03/11 00:39:19;;;;;;;10.73;5.60;;;;;;;-8.60;70.16;94027.63;5093259;28;20052;-42
2022/03/11 00:41:45;;;;;;;15.68;10.30;;;;;;;-8.56;70.16;94017.63;5092986;28;20086;-42
2022/03/11 00:44:10;;;;;;;26.15;12.40;;;;;;;-8.49;71.02;94022.09;5092855;28;20458;-42
2022/03/11 00:46:36;;;;;;;23.40;12.13;;;;;;;-8.32;69.38;94023.66;5093128;28;20421;-42
2022/03/11 00:49:01;;;;;;;20.10;11.57;;;;;;;-8.43;70.13;94023.13;5092849;28;20657;-42
2022/03/11 00:51:27;;;;;;;18.13;9.88;;;;;;;-8.38;69.64;94021.88;5093024;28;20089;-41
2022/03/11 00:53:52;;;;;;;16.05;7.32;;;;;;;-8.69;69.37;94024.78;5092975;28;20470;-42
2022/03/11 00:56:18;;;;;;;24.30;10.88;;;;;;;-8.73;70.37;94018.00;5092635;28;20052;-42
2022/03/11 00:58:45;;;;;;;17.00;9.68;;;;;;;-8.52;70.13;94015.66;5092881;28;20023;-42
2022/03/11 01:01:11;;;;;;;13.50;8.68;;;;;;;-8.66;70.75;94021.25;5091445;28;20023;-42
2022/03/11 01:03:36;;;;;;;21.15;10.27;;;;;;;-8.57;71.30;94018.78;5092074;28;20021;-42
2022/03/11 01:06:01;;;;;;;31.67;12.18;;;;;;;-8.50;72.08;94009.88;5092429;28;20020;-42
2022/03/11 01:08:27;;;;;;;23.95;11.13;;;;;;;-8.39;70.67;94010.41;5092728;28;20016;-42
2022/03/11 01:10:52;;;;;;;13.07;6.03;;;;;;;-8.63;69.46;94019.69;5083048;28;20021;-42
2022/03/11 01:13:18;;;;;;;12.70;4.78;;;;;;;-8.56;69.21;94016.88;5072387;28;20428;-42
2022/03/11 01:15:44;;;;;;;15.27;7.55;;;;;;;-8.81;70.46;94019.28;5072054;28;20047;-42
2022/03/11 01:18:09;;;;;;;8.75;4.95;;;;;;;-8.91;71.17;94020.25;5075193;28;20028;-41
2022/03/11 01:20:34;;;;;;;7.93;5.53;;;;;;;-8.71;70.95;94021.78;5092382;28;20035;-42
2022/03/11 01:23:00;;;;;;;8.18;4.88;;;;;;;-8.43;70.29;94012.41;5092393;28;20410;-42
2022/03/11 01:25:25;;;;;;;6.50;4.07;;;;;;;-8.47;71.08;94013.66;5092352;28;20016;-42
2022/03/11 01:27:51;;;;;;;13.40;6.25;;;;;;;-8.32;71.47;94020.22;5091985;28;20474;-42
2022/03/11 01:30:16;;;;;;;8.10;4.68;;;;;;;-8.30;71.85;94018.63;5092268;28;20031;-42
2022/03/11 01:32:43;;;;;;;28.08;9.15;;;;;;;-8.23;70.43;94013.09;5091814;28;20027;-41
2022/03/11 01:35:08;;;;;;;18.38;10.25;;;;;;;-8.34;69.23;94007.25;5092150;28;20038;-42
2022/03/11 01:37:34;;;;;;;21.23;12.00;;;;;;;-8.28;68.83;94012.84;5091796;28;20016;-42
2022/03/11 01:39:59;;;;;;;22.77;10.85;;;;;;;-8.35;69.25;94013.75;5093702;28;20019;-42
2022/03/11 01:42:25;;;;;;;24.25;9.80;;;;;;;-8.38;69.00;94009.22;5112037;28;20023;-42
2022/03/11 01:44:52;;;;;;;29.23;12.32;;;;;;;-8.59;69.80;94009.66;5112304;28;20026;-42
2022/03/11 01:47:18;;;;;;;39.63;19.87;;;;;;;-8.96;70.50;94010.78;5112344;28;20436;-42
2022/03/11 01:49:44;;;;;;;34.92;17.20;;;;;;;-8.86;70.60;94014.41;5112230;28;20027;-42
2022/03/11 01:52:11;;;;;;;20.58;13.93;;;;;;;-8.89;70.93;94012.56;5112250;28;20498;-42
2022/03/11 01:54:37;;;;;;;26.77;15.32;;;;;;;-8.83;70.80;94005.56;5111917;28;20069;-42
2022/03/11 01:57:02;;;;;;;27.75;15.70;;;;;;;-8.96;71.39;94007.34;5093376;28;20056;-42
2022/03/11 01:59:28;;;;;;;20.20;11.65;;;;;;;-8.84;72.38;94006.72;5112101;28;20457;-42
2022/03/11 02:01:53;;;;;;;19.15;8.57;;;;;;;-8.91;70.03;94004.94;5111977;28;20023;-42
2022/03/11 02:04:19;;;;;;;13.98;7.05;;;;;;;-8.97;69.27;94003.94;5091904;28;20483;-42
2022/03/11 02:06:45;;;;;;;13.32;6.60;;;;;;;-8.90;68.83;94003.03;5091484;28;20012;-42
2022/03/11 02:09:12;;;;;;;10.85;6.10;;;;;;;-8.87;68.97;93986.91;5073549;28;20410;-42
2022/03/11 02:11:37;;;;;;;11.75;6.47;;;;;;;-9.09;68.68;94006.44;5075833;28;20020;-42
2022/03/11 02:14:03;;;;;;;30.35;13.13;;;;;;;-9.25;69.10;94001.78;5070833;28;20508;-42
2022/03/11 02:16:29;;;;;;;55.80;17.83;;;;;;;-9.54;69.79;94006.84;5091073;28;20098;-41
2022/03/11 02:18:55;;;;;;;56.45;18.35;;;;;;;-9.68;70.83;93999.06;5090995;28;20024;-42
2022/03/11 02:21:22;;;;;;;32.60;13.98;;;;;;;-9.54;71.26;93996.16;5090988;28;20081;-41
2022/03/11 02:23:53;;;;;;;25.17;12.50;;;;;;;-9.62;70.53;94000.13;5091211;28;20027;-42
2022/03/11 02:26:21;;;;;;;21.10;8.00;;;;;;;-9.56;71.23;93998.47;5090907;28;20028;-42
2022/03/11 02:28:48;;;;;;;21.63;10.38;;;;;;;-9.57;70.08;94004.25;5091187;28;20098;-42
2022/03/11 02:31:13;;;;;;;26.33;11.68;;;;;;;-9.44;71.13;93997.16;5091127;28;20024;-42
2022/03/11 02:33:39;;;;;;;26.58;10.48;;;;;;;-9.38;69.33;94001.63;5090842;28;20500;-41
2022/03/11 02:36:05;;;;;;;18.75;10.93;;;;;;;-9.42;69.62;94003.56;5090795;28;20568;-41
2022/03/11 02:38:31;;;;;;;19.02;10.75;;;;;;;-9.47;70.99;94004.06;5090986;28;20020;-41
2022/03/11 02:40:57;;;;;;;20.23;10.05;;;;;;;-9.40;70.57;94003.91;5100663;28;20026;-41
2022/03/11 02:43:23;;;;;;;19.35;10.23;;;;;;;-9.63;70.46;94011.19;5110878;28;20023;-41
2022/03/11 02:45:49;;;;;;;23.02;12.45;;;;;;;-9.98;71.23;94012.50;5111081;28;20020;-41
2022/03/11 02:48:14;;;;;;;33.97;15.00;;;;;;;-9.80;70.73;94006.88;5110964;28;20023;-41
2022/03/11 02:50:40;;;;;;;40.20;15.70;;;;;;;-9.81;70.29;94016.81;5111191;28;20094;-41
2022/03/11 02:53:05;;;;;;;31.98;13.38;;;;;;;-9.72;70.10;94011.72;5111136;28;20077;-41
2022/03/11 02:55:31;;;;;;;37.05;15.63;;;;;;;-9.81;70.03;94016.81;5092655;28;20028;-42
2022/03/11 02:57:56;;;;;;;31.10;14.18;;;;;;;-9.86;69.92;94019.19;5110609;28;20058;-42
2022/03/11 03:00:22;;;;;;;41.47;17.40;;;;;;;-10.21;71.03;94004.50;5110784;28;20027;-41
2022/03/11 03:02:48;;;;;;;31.35;16.63;;;;;;;-9.98;69.87;93999.16;5103438;28;20078;-41
2022/03/11 03:05:13;;;;;;;32.70;14.93;;;;;;;-9.87;70.90;94021.13;5090375;28;20019;-42
2022/03/11 03:07:40;;;;;;;31.90;12.93;;;;;;;-9.91;70.93;94023.09;5090346;28;20085;-41
2022/03/11 03:10:06;;;;;;;18.90;8.25;;;;;;;-10.07;71.24;94018.34;5087275;28;20025;-41
2022/03/11 03:12:32;;;;;;;12.75;7.90;;;;;;;-10.10;71.43;93995.16;5088798;28;20028;-41
2022/03/11 03:14:57;;;;;;;25.65;10.15;;;;;;;-9.96;71.24;94018.19;5090552;28;20529;-42
2022/03/11 03:17:23;;;;;;;10.70;5.93;;;;;;;-9.87;71.04;94017.72;5090378;28;20489;-41
2022/03/11 03:19:48;;;;;;;12.50;8.00;;;;;;;-9.97;71.36;94021.28;5090194;28;20023;-42
2022/03/11 03:22:14;;;;;;;12.45;6.25;;;;;;;-10.05;71.53;94029.38;5090143;28;20047;-41
2022/03/11 03:24:40;;;;;;;13.45;7.32;;;;;;;-9.94;72.01;94015.91;5072711;28;20047;-41
2022/03/11 03:27:05;;;;;;;26.25;13.50;;;;;;;-10.02;71.96;94029.72;5094387;28;20031;-41
2022/03/11 03:29:30;;;;;;;13.63;7.55;;;;;;;-10.04;71.50;94024.81;5094328;28;20027;-41
2022/03/11 03:31:59;;;;;;;29.60;13.20;;;;;;;-9.99;72.84;94029.69;5094534;28;20020;-42
2022/03/11 03:34:32;;;;;;;29.58;12.25;;;;;;;-10.03;72.25;94033.56;5094434;28;20027;-41
2022/03/11 03:37:03;;;;;;;28.40;11.98;;;;;;;-9.99;72.68;94034.28;5094504;28;20460;-41
2022/03/11 03:39:29;;;;;;;24.13;12.05;;;;;;;-10.04;72.29;94040.81;5094411;28;20038;-41
2022/03/11 03:41:56;;;;;;;23.48;12.57;;;;;;;-9.88;72.11;94037.56;5112264;28;20027;-41
2022/03/11 03:44:22;;;;;;;16.23;9.20;;;;;;;-9.85;71.01;94040.16;5114539;28;20031;-41
2022/03/11 03:46:48;;;;;;;19.75;9.30;;;;;;;-10.20;70.65;94017.44;5114439;28;20468;-42
2022/03/11 03:49:13;;;;;;;15.52;10.40;;;;;;;-9.94;70.52;94039.94;5114620;28;20024;-41
2022/03/11 03:51:39;;;;;;;16.45;8.23;;;;;;;-10.05;70.49;94021.38;5114267;28;20072;-40
2022/03/11 03:54:06;;;;;;;19.88;10.00;;;;;;;-9.89;70.82;94039.47;5114200;28;20015;-41
2022/03/11 03:56:33;;;;;;;22.13;10.30;;;;;;;-9.85;71.61;94037.47;5114167;28;20432;-41
2022/03/11 03:59:04;;;;;;;18.08;8.88;;;;;;;-9.86;72.99;94049.34;5114393;28;20024;-41
2022/03/11 04:01:32;;;;;;;16.42;8.35;;;;;;;-9.74;71.21;94048.00;5114422;28;20015;-40
2022/03/11 04:03:57;;;;;;;18.50;9.25;;;;;;;-9.83;71.36;94042.44;5078871;28;20413;-41
2022/03/11 04:06:22;;;;;;;13.98;8.30;;;;;;;-9.81;70.78;94040.84;5075441;28;20020;-41
2022/03/11 04:08:48;;;;;;;17.33;8.25;;;;;;;-9.91;70.98;94041.78;5093505;28;20085;-41
2022/03/11 04:11:13;;;;;;;13.90;8.60;;;;;;;-9.91;70.51;94046.34;5093695;28;20073;-41
2022/03/11 04:13:39;;;;;;;16.85;10.23;;;;;;;-9.94;70.22;94045.28;5093563;28;20016;-41
2022/03/11 04:16:04;;;;;;;17.35;8.90;;;;;;;-9.74;70.24;94048.78;5093654;28;20046;-41
2022/03/11 04:18:30;;;;;;;17.38;8.93;;;;;;;-9.91;70.76;94049.78;5093628;28;20524;-41
2022/03/11 04:20:55;;;;;;;11.05;7.18;;;;;;;-9.84;70.19;94049.69;5093273;28;20027;-41
2022/03/11 04:23:21;;;;;;;21.90;7.60;;;;;;;-9.75;70.71;94052.63;5093190;28;20039;-41
2022/03/11 04:25:46;;;;;;;17.25;8.77;;;;;;;-9.66;71.88;94049.44;5093536;28;20027;-41
2022/03/11 04:28:11;;;;;;;14.98;8.32;;;;;;;-9.68;71.31;94049.09;5093493;28;20021;-40
2022/03/11 04:30:37;;;;;;;15.68;8.20;;;;;;;-9.70;70.38;94059.41;5093198;28;20020;-41
2022/03/11 04:33:02;;;;;;;12.82;8.13;;;;;;;-9.83;70.17;94059.19;5093097;28;20035;-41
2022/03/11 04:35:28;;;;;;;15.65;8.07;;;;;;;-9.77;70.14;94064.88;5093066;28;20031;-40
2022/03/11 04:37:53;;;;;;;13.73;8.85;;;;;;;-9.71;69.53;94061.31;5093055;28;20019;-41
2022/03/11 04:40:19;;;;;;;18.15;10.35;;;;;;;-10.03;70.50;94063.72;5097973;28;20020;-41
2022/03/11 04:42:44;;;;;;;27.67;11.63;;;;;;;-10.06;71.18;94059.94;5113541;28;20393;-41
2022/03/11 04:45:10;;;;;;;22.50;11.45;;;;;;;-9.95;71.05;94064.34;5113651;28;20401;-41
2022/03/11 04:47:35;;;;;;;24.13;10.18;;;;;;;-10.02;70.98;94059.09;5113448;28;20462;-41
2022/03/11 04:50:01;;;;;;;21.52;10.70;;;;;;;-10.11;70.84;94048.97;5113309;28;20026;-41
2022/03/11 04:52:26;;;;;;;17.35;9.82;;;;;;;-9.84;70.55;94062.28;5113112;28;20019;-41
2022/03/11 04:54:52;;;;;;;27.83;10.45;;;;;;;-9.96;70.46;94058.25;5113362;28;20094;-41
2022/03/11 04:57:17;;;;;;;14.50;10.38;;;;;;;-9.86;70.98;94064.63;5112837;28;20047;-40
2022/03/11 04:59:44;;;;;;;16.60;9.82;;;;;;;-9.80;70.93;94065.66;5094811;28;20024;-41
2022/03/11 05:02:09;;;;;;;13.65;9.13;;;;;;;-9.84;70.97;94065.72;5111450;28;20047;-41
2022/03/11 05:04:35;;;;;;;14.70;8.43;;;;;;;-9.84;70.82;94076.41;5092244;28;20469;-41
2022/03/11 05:07:00;;;;;;;18.58;12.25;;;;;;;-9.62;70.25;94072.25;5092860;28;20024;-41
2022/03/11 05:09:26;;;;;;;21.50;13.45;;;;;;;-9.57;70.50;94063.03;5092692;28;20463;-40
2022/03/11 05:11:51;;;;;;;34.88;18.27;;;;;;;-9.55;71.10;94064.13;5092367;28;20417;-41
2022/03/11 05:14:17;;;;;;;21.30;12.57;;;;;;;-9.56;72.15;94075.97;5092279;28;20023;-41
2022/03/11 05:16:42;;;;;;;25.08;14.13;;;;;;;-9.44;72.61;94072.72;5092318;28;20020;-41
2022/03/11 05:19:08;;;;;;;32.38;19.42;;;;;;;-9.35;71.31;94064.94;5092528;28;20039;-40
2022/03/11 05:21:33;;;;;;;19.40;11.25;;;;;;;-9.18;71.37;94070.41;5092399;28;20024;-41
2022/03/11 05:23:59;;;;;;;39.08;19.05;;;;;;;-9.37;71.43;94077.97;5092416;28;20677;-41
2022/03/11 05:26:24;;;;;;;29.40;15.65;;;;;;;-9.56;70.94;94083.25;5092300;28;20028;-41
2022/03/11 05:29:00;;;;;;;35.95;21.35;;;;;;;-9.53;71.09;94085.84;5092099;28;20493;-41
2022/03/11 05:31:26;;;;;;;22.95;14.82;;;;;;;-9.35;70.85;94080.22;5092287;28;20024;-41
2022/03/11 05:33:54;;;;;;;24.35;14.85;;;;;;;-9.22;70.84;94057.09;5091882;28;20017;-41
2022/03/11 05:36:19;;;;;;;37.50;18.75;;;;;;;-8.83;70.26;94073.19;5091850;28;20013;-41
2022/03/11 05:38:45;;;;;;;28.67;16.65;;;;;;;-8.75;70.50;94074.56;5091800;28;20077;-41
2022/03/11 05:41:10;;;;;;;29.48;16.40;;;;;;;-8.69;71.28;94035.50;5103771;28;20019;-41
2022/03/11 05:43:36;;;;;;;41.80;23.60;;;;;;;-8.28;72.23;94061.81;5112349;28;20036;-41
2022/03/11 05:46:02;;;;;;;44.05;19.85;;;;;;;-8.31;71.93;94033.19;5112099;28;20023;-41
2022/03/11 05:48:28;;;;;;;50.05;26.15;;;;;;;-7.89;71.67;94064.41;5111238;28;20574;-41
2022/03/11 05:50:53;;;;;;;47.45;21.17;;;;;;;-7.64;70.60;94058.47;5112235;28;20027;-40
2022/03/11 05:53:19;;;;;;;199.20;79.88;;;;;;;-7.48;69.85;94071.91;5112187;28;20508;-41
2022/03/11 05:55:44;;;;;;;50.80;24.02;;;;;;;-7.31;68.59;94075.31;5111712;28;20508;-41
2022/03/11 05:58:09;;;;;;;28.75;15.30;;;;;;;-7.01;69.46;94074.97;5111977;28;20034;-40
2022/03/11 06:00:35;;;;;;;26.77;14.48;;;;;;;-6.84;68.00;94078.41;5098630;28;20437;-41
2022/03/11 06:03:00;;;;;;;33.47;15.05;;;;;;;-6.62;67.66;94080.09;5082404;28;20025;-41
2022/03/11 06:05:26;;;;;;;72.57;28.65;;;;;;;-6.50;67.52;94087.47;5071311;28;20017;-41
2022/03/11 06:07:51;;;;;;;76.63;31.77;;;;;;;-6.49;67.13;94086.28;5071066;28;20027;-41
2022/03/11 06:10:17;;;;;;;69.88;25.30;;;;;;;-6.30;66.40;94093.44;5070953;28;20016;-41
2022/03/11 06:12:42;;;;;;;45.90;20.55;;;;;;;-6.07;66.73;94097.81;5071209;28;20017;-41
2022/03/11 06:15:11;;;;;;;41.67;18.65;;;;;;;-5.87;66.49;94103.75;5070941;28;20027;-41
2022/03/11 06:17:36;;;;;;;57.13;26.73;;;;;;;-5.58;65.69;94100.94;5071145;28;20051;-41
2022/03/11 06:20:02;;;;;;;25.85;13.82;;;;;;;-5.43;64.89;94104.72;5070784;28;20068;-41
2022/03/11 06:22:28;;;;;;;35.55;17.75;;;;;;;-5.29;64.06;94108.94;5070946;28;20032;-41
2022/03/11 06:24:53;;;;;;;85.68;32.08;;;;;;;-5.26;64.17;94102.69;5071058;28;20077;-41
2022/03/11 06:27:19;;;;;;;61.85;27.92;;;;;;;-5.08;63.90;94097.50;5070749;28;20059;-41
2022/03/11 06:29:44;;;;;;;85.43;33.78;;;;;;;-4.94;64.35;94102.44;5070558;28;20023;-41
2022/03/11 06:32:10;;;;;;;90.78;30.73;;;;;;;-4.10;63.53;94096.88;5070669;28;20021;-41
2022/03/11 06:34:37;;;;;;;25.48;12.35;;;;;;;-2.53;60.56;94101.25;5070869;28;20020;-42
2022/03/11 06:37:03;;;;;;;10.60;7.38;;;;;;;-0.99;56.24;94103.72;5070572;28;20021;-42
2022/03/11 06:39:28;;;;;;;13.73;8.65;;;;;;;0.42;51.70;94097.44;5070821;28;20078;-42
2022/03/11 06:41:54;;;;;;;30.10;14.05;;;;;;;2.04;48.84;94095.84;5088701;28;20034;-41
2022/03/11 06:44:19;;;;;;;35.17;15.43;;;;;;;3.24;43.52;94099.44;5072564;28;20081;-42
2022/03/11 06:46:45;;;;;;;11.05;7.60;;;;;;;4.34;40.72;94099.25;5090653;28;20026;-42
2022/03/11 06:49:11;;;;;;;8.98;6.07;;;;;;;5.29;37.84;94093.41;5090991;28;20024;-41
2022/03/11 06:51:36;;;;;;;7.95;5.80;;;;;;;6.06;35.93;94094.53;5090549;28;20020;-41
2022/03/11 06:54:04;;;;;;;8.73;6.15;;;;;;;7.12;33.99;94100.19;5090574;28;20016;-41
2022/03/11 06:56:30;;;;;;;9.25;6.95;;;;;;;6.94;33.39;94106.28;5090168;28;20043;-42
2022/03/11 06:58:55;;;;;;;12.63;8.73;;;;;;;6.78;32.12;94110.63;5090311;28;20020;-41
2022/03/11 07:01:21;;;;;;;13.75;8.98;;;;;;;7.15;32.71;94105.38;5090731;28;20024;-41
2022/03/11 07:03:46;;;;;;;8.80;6.13;;;;;;;6.46;31.49;94099.31;5090508;28;20478;-41
2022/03/11 07:06:11;;;;;;;7.32;5.40;;;;;;;6.17;33.49;94093.75;5090394;28;20421;-41
2022/03/11 07:08:37;;;;;;;10.63;7.88;;;;;;;6.70;32.30;94106.94;5090284;28;20031;-41
2022/03/11 07:11:02;;;;;;;10.20;5.78;;;;;;;7.26;31.94;94110.81;5079644;28;20021;-43
2022/03/11 07:13:28;;;;;;;6.72;5.20;;;;;;;7.39;30.60;94119.19;5070120;28;20490;-43
2022/03/11 07:15:56;;;;;;;7.15;4.65;;;;;;;7.62;31.49;94114.25;5070315;28;20108;-43
2022/03/11 07:18:21;;;;;;;6.97;5.03;;;;;;;6.82;32.34;94114.59;5070382;28;20024;-43
2022/03/11 07:20:47;;;;;;;9.07;5.40;;;;;;;7.86;30.50;94113.53;5070313;28;20500;-43
2022/03/11 07:23:12;;;;;;;6.15;5.13;;;;;;;8.50;29.29;94114.59;5069994;28;20027;-44
2022/03/11 07:25:38;;;;;;;8.90;5.93;;;;;;;8.65;28.78;94120.41;5070247;28;20025;-43
2022/03/11 07:28:04;;;;;;;7.28;5.45;;;;;;;8.33;28.86;94121.06;5069881;28;20040;-44
2022/03/11 07:30:29;;;;;;;8.45;6.40;;;;;;;8.96;29.71;94123.25;5069866;28;20023;-44
2022/03/11 07:32:55;;;;;;;7.65;6.10;;;;;;;8.69;27.97;94123.59;5068820;28;20020;-44
2022/03/11 07:35:20;;;;;;;8.88;5.47;;;;;;;7.00;29.44;94123.47;5069834;28;20031;-43
2022/03/11 07:37:46;;;;;;;8.60;5.75;;;;;;;5.87;30.93;94132.69;5069866;28;20099;-43
2022/03/11 07:40:12;;;;;;;10.77;7.45;;;;;;;5.43;31.34;94132.72;5077729;28;20026;-42
2022/03/11 07:42:42;;;;;;;10.40;7.32;;;;;;;5.21;34.70;94130.75;5110578;28;20028;-43
2022/03/11 07:45:10;;;;;;;9.07;6.82;;;;;;;6.26;33.52;94138.06;5110562;28;20023;-44
2022/03/11 07:47:36;;;;;;;7.25;5.82;;;;;;;6.96;31.54;94131.22;5110284;28;20023;-45
2022/03/11 07:50:02;;;;;;;6.30;5.10;;;;;;;7.36;31.04;94138.69;5110335;28;20071;-44
2022/03/11 07:52:27;;;;;;;10.43;7.53;;;;;;;7.61;30.68;94140.25;5102186;28;20044;-43
2022/03/11 07:54:53;;;;;;;11.02;6.40;;;;;;;8.61;30.36;94131.72;5089980;28;20094;-46
2022/03/11 07:57:18;;;;;;;13.40;8.30;;;;;;;8.83;29.11;94131.44;5089620;28;20048;-44
2022/03/11 07:59:44;;;;;;;12.90;8.27;;;;;;;9.78;27.40;94133.50;5090117;28;20028;-43
2022/03/11 08:02:09;;;;;;;8.45;6.25;;;;;;;10.29;26.88;94137.63;5088434;28;20128;-44
2022/03/11 08:04:35;;;;;;;7.60;5.65;;;;;;;10.56;26.57;94127.34;5051507;28;20133;-44
2022/03/11 08:07:06;;;;;;;7.45;5.38;;;;;;;9.78;25.78;94142.53;5069700;28;20104;-43
2022/03/11 08:09:35;;;;;;;7.28;5.22;;;;;;;10.47;25.74;94131.28;5069627;28;20024;-44
2022/03/11 08:12:00;;;;;;;7.43;5.88;;;;;;;9.97;26.37;94133.44;5072064;28;20054;-44
2022/03/11 08:14:26;;;;;;;10.77;6.05;;;;;;;10.21;26.82;94131.25;5073469;28;20130;-45
2022/03/11 08:16:51;;;;;;;5.72;5.10;;;;;;;9.65;26.58;94131.47;5073518;28;20020;-43
2022/03/11 08:19:17;;;;;;;5.63;5.00;;;;;;;10.55;27.35;94125.84;5073385;28;20401;-44
2022/03/11 08:21:42;;;;;;;6.18;5.22;;;;;;;11.04;24.86;94124.06;5073377;28;20020;-47
2022/03/11 08:24:08;;;;;;;10.48;7.25;;;;;;;12.03;23.72;94129.28;5073237;28;20474;-46
2022/03/11 08:26:33;;;;;;;7.55;6.13;;;;;;;11.67;23.80;94120.13;5073046;28;20461;-44
2022/03/11 08:28:59;;;;;;;12.43;8.73;;;;;;;12.73;23.86;94115.34;5073296;28;20024;-45
2022/03/11 08:31:24;;;;;;;10.10;7.20;;;;;;;13.41;23.04;94118.38;5072888;28;20020;-44
2022/03/11 08:33:49;;;;;;;7.40;5.88;;;;;;;14.09;21.17;94121.97;5073191;28;20024;-46
2022/03/11 08:36:15;;;;;;;7.85;5.97;;;;;;;13.86;20.30;94126.03;5073101;28;20025;-44
2022/03/11 08:38:41;;;;;;;6.97;6.13;;;;;;;13.97;20.85;94115.28;5072833;28;20047;-45
2022/03/11 08:41:09;;;;;;;11.80;8.13;;;;;;;14.50;21.30;94128.44;5084034;28;20036;-44
2022/03/11 08:43:38;;;;;;;6.72;5.43;;;;;;;13.61;20.57;94117.50;5092831;28;20020;-45
2022/03/11 08:46:07;;;;;;;10.43;7.63;;;;;;;13.69;20.76;94121.75;5092937;28;20028;-44
2022/03/11 08:48:33;;;;;;;8.80;6.88;;;;;;;13.41;22.24;94126.69;5092928;28;20489;-45
2022/03/11 08:50:58;;;;;;;6.45;4.88;;;;;;;14.49;20.75;94118.63;5093108;28;20468;-45
2022/03/11 08:53:24;;;;;;;6.20;5.60;;;;;;;13.52;21.13;94118.03;5093080;28;20036;-44
2022/03/11 08:55:49;;;;;;;11.90;9.23;;;;;;;13.79;21.63;94116.41;5092828;28;20489;-45
2022/03/11 08:58:15;;;;;;;16.80;12.30;;;;;;;14.49;20.47;94113.78;5092960;28;20031;-43
2022/03/11 09:00:41;;;;;;;15.10;10.90;;;;;;;14.84;21.03;94117.59;5092656;28;20032;-43
2022/03/11 09:03:07;;;;;;;8.43;6.85;;;;;;;14.90;20.62;94115.38;5083053;28;20473;-44
2022/03/11 09:05:33;;;;;;;6.07;4.75;;;;;;;14.45;20.51;94110.66;5072606;28;20029;-44
2022/03/11 09:07:59;;;;;;;6.90;5.70;;;;;;;14.68;21.36;94116.19;5072265;28;20107;-45
2022/03/11 09:10:25;;;;;;;6.32;5.22;;;;;;;15.49;18.63;94110.88;5072105;28;20017;-43
2022/03/11 09:12:50;;;;;;;6.13;4.90;;;;;;;15.40;19.69;94111.44;5072459;28;20028;-44
2022/03/11 09:15:16;;;;;;;7.90;6.35;;;;;;;15.55;19.07;94113.44;5072358;28;20700;-43
2022/03/11 09:17:42;;;;;;;8.25;6.72;;;;;;;15.86;19.60;94109.91;5072378;28;20078;-43
2022/03/11 09:20:09;;;;;;;14.02;11.35;;;;;;;14.94;19.43;94110.91;5072352;28;20016;-43
2022/03/11 09:22:35;;;;;;;6.80;6.00;;;;;;;13.30;21.50;94110.38;5070998;28;20021;-43
2022/03/11 09:25:03;;;;;;;9.63;6.88;;;;;;;14.08;21.27;94109.38;5072279;28;20031;-43
2022/03/11 09:27:30;;;;;;;11.82;9.38;;;;;;;14.00;20.85;94105.13;5072167;28;20024;-43
2022/03/11 09:29:56;;;;;;;10.80;8.10;;;;;;;14.18;19.92;94112.34;5071805;28;20104;-43
2022/03/11 09:32:21;;;;;;;14.50;9.68;;;;;;;12.67;21.71;94109.94;5072104;28;20085;-42
2022/03/11 09:34:47;;;;;;;7.18;6.20;;;;;;;14.17;21.73;94111.59;5071664;28;20430;-43
2022/03/11 09:37:13;;;;;;;6.47;5.63;;;;;;;14.94;20.82;94105.34;5072004;28;20028;-43
2022/03/11 09:39:38;;;;;;;9.52;7.05;;;;;;;14.90;18.56;94107.03;5071549;28;20519;-43
2022/03/11 09:42:04;;;;;;;12.60;9.18;;;;;;;12.94;20.44;94097.31;5090832;28;20016;-43
2022/03/11 09:44:30;;;;;;;5.68;4.75;;;;;;;11.84;21.52;94105.88;5091775;28;20024;-43
2022/03/11 09:46:55;;;;;;;8.90;6.75;;;;;;;11.31;24.29;94108.13;5091941;28;20077;-42
2022/03/11 09:49:21;;;;;;;8.82;6.43;;;;;;;11.24;24.59;94108.81;5091773;28;20448;-42
2022/03/11 09:51:47;;;;;;;8.07;5.53;;;;;;;11.51;23.06;94104.66;5091847;28;20405;-42
2022/03/11 09:54:13;;;;;;;6.35;4.93;;;;;;;11.62;22.62;94098.84;5091893;28;20440;-42
2022/03/11 09:56:40;;;;;;;7.75;5.15;;;;;;;11.61;24.37;94094.59;5091482;28;20062;-42
2022/03/11 09:59:07;;;;;;;5.65;4.70;;;;;;;11.58;23.21;94100.47;5091483;28;20024;-42
2022/03/11 10:01:33;;;;;;;5.60;4.22;;;;;;;12.21;22.57;94102.66;5091536;28;20028;-42
2022/03/11 10:03:59;;;;;;;21.55;7.25;;;;;;;11.28;21.95;94100.94;5073492;28;20088;-42
2022/03/11 10:06:36;;;;;;;7.65;5.63;;;;;;;10.04;24.81;94105.97;5091619;28;20016;-42
2022/03/11 10:09:02;;;;;;;10.48;6.55;;;;;;;10.06;24.64;94100.66;5091383;28;20032;-42
2022/03/11 10:11:28;;;;;;;6.18;5.00;;;;;;;9.30;25.17;94106.97;5076658;28;20055;-42
2022/03/11 10:14:03;;;;;;;6.88;5.22;;;;;;;8.48;25.86;94106.09;5071282;28;20040;-42
2022/03/11 10:16:29;;;;;;;11.70;8.45;;;;;;;8.52;25.75;94104.56;5070882;28;20024;-42
2022/03/11 10:19:21;;;;;;;17.58;8.52;;;;;;;8.66;27.48;94106.13;5071185;28;20024;-42
2022/03/11 10:21:47;;;;;;;13.82;9.35;;;;;;;9.37;25.03;94094.59;5068009;28;20525;-42
2022/03/11 10:24:14;;;;;;;9.55;6.30;;;;;;;8.75;24.00;94100.25;5071002;28;20028;-42
2022/03/11 10:26:48;;;;;;;7.78;4.93;;;;;;;8.51;23.50;94094.06;5070784;28;20032;-42
2022/03/11 10:29:31;;;;;;;6.60;4.13;;;;;;;6.97;25.31;94097.03;5070744;28;20028;-41
2022/03/11 10:31:58;;;;;;;7.47;5.80;;;;;;;8.91;25.24;94091.00;5070652;28;20029;-42
2022/03/11 10:34:29;;;;;;;6.53;5.03;;;;;;;11.21;24.59;94076.72;5070542;28;20024;-42
2022/03/11 10:37:00;;;;;;;5.40;4.55;;;;;;;11.66;21.59;94071.59;5070514;28;20107;-42
2022/03/11 10:39:36;;;;;;;5.53;4.72;;;;;;;11.42;23.86;94067.16;5070429;28;20071;-42
2022/03/11 10:42:12;;;;;;;5.18;4.07;;;;;;;11.95;22.05;94083.47;5089597;28;20048;-43
2022/03/11 10:44:39;;;;;;;4.07;3.67;;;;;;;9.97;20.58;94079.00;5090537;28;20026;-42
2022/03/11 10:47:34;;;;;;;7.40;4.82;;;;;;;9.33;23.48;94074.88;5090889;28;20027;-42
2022/03/11 10:50:06;;;;;;;4.18;3.78;;;;;;;9.75;22.91;94060.84;5090890;28;20031;-42
2022/03/11 10:52:36;;;;;;;4.82;3.92;;;;;;;10.95;22.74;94074.78;5090888;28;20120;-42
2022/03/11 10:55:23;;;;;;;4.45;4.05;;;;;;;9.11;22.69;94068.44;5090857;28;20020;-42
2022/03/11 10:57:52;;;;;;;6.10;4.72;;;;;;;7.99;24.12;94078.63;5090277;28;20051;-42
2022/03/11 11:00:24;;;;;;;6.60;3.92;;;;;;;6.13;24.67;94082.28;5090312;28;20574;-42
2022/03/11 11:02:51;;;;;;;6.18;4.80;;;;;;;5.29;26.34;94076.22;5083402;28;20029;-41
2022/03/11 11:05:17;;;;;;;5.10;4.00;;;;;;;3.65;27.49;94065.94;5052220;28;20450;-42
2022/03/11 11:07:44;;;;;;;6.40;4.95;;;;;;;2.16;31.16;94092.03;5070253;28;20032;-41
2022/03/11 11:10:10;;;;;;;6.05;4.55;;;;;;;1.42;31.86;94080.72;5069988;28;20036;-41
2022/03/11 11:12:36;;;;;;;8.10;5.45;;;;;;;1.44;31.73;94070.13;5070424;28;20455;-41
2022/03/11 11:15:03;;;;;;;7.80;5.28;;;;;;;1.89;33.11;94076.84;5070111;28;20023;-41
2022/03/11 11:17:29;;;;;;;6.15;4.18;;;;;;;2.66;29.09;94071.47;5070004;28;20078;-41
2022/03/11 11:19:57;;;;;;;6.00;4.85;;;;;;;2.17;30.57;94079.88;5052239;28;20021;-42
2022/03/11 11:22:25;;;;;;;6.78;4.55;;;;;;;2.68;29.96;94060.81;5070278;28;20028;-41